createdAt,value
2022-12-03T00:00:42.801Z,12.37
2022-12-03T00:03:12.646Z,12.00
2022-12-03T00:05:48.208Z,12.57
2022-12-03T00:08:17.306Z,14.07
2022-12-03T00:10:45.694Z,13.17
2022-12-03T00:13:13.953Z,12.17
2022-12-03T00:15:42.233Z,13.47
2022-12-03T00:18:11.965Z,12.17
2022-12-03T00:20:40.236Z,13.17
2022-12-03T00:23:08.529Z,12.53
2022-12-03T00:25:36.841Z,13.47
2022-12-03T00:28:05.312Z,12.23
2022-12-03T00:30:33.635Z,12.53
2022-12-03T00:33:01.894Z,12.33
2022-12-03T00:35:31.639Z,12.63
2022-12-03T00:38:00.009Z,12.10
2022-12-03T00:40:28.358Z,13.00
2022-12-03T00:42:56.642Z,11.50
2022-12-03T00:45:24.868Z,13.53
2022-12-03T00:47:53.163Z,13.50
2022-12-03T00:50:21.480Z,11.93
2022-12-03T00:52:51.149Z,11.70
2022-12-03T00:55:19.576Z,12.60
2022-12-03T00:57:47.828Z,12.43
2022-12-03T01:00:16.801Z,12.53
2022-12-03T01:02:45.138Z,12.40
2022-12-03T01:05:13.588Z,12.83
2022-12-03T01:07:41.917Z,11.73
2022-12-03T01:10:12.778Z,11.97
2022-12-03T01:12:41.172Z,11.73
2022-12-03T01:15:11.312Z,10.70
2022-12-03T01:17:39.585Z,11.63
2022-12-03T01:20:10.389Z,11.37
2022-12-03T01:22:38.949Z,11.60
2022-12-03T01:25:07.874Z,10.53
2022-12-03T01:27:37.536Z,10.93
2022-12-03T01:30:07.303Z,11.17
2022-12-03T01:32:34.541Z,10.60
2022-12-03T01:35:02.923Z,10.80
2022-12-03T01:37:31.252Z,11.07
2022-12-03T01:39:59.578Z,10.40
2022-12-03T01:42:30.167Z,10.90
2022-12-03T01:45:01.432Z,9.67
2022-12-03T01:47:33.111Z,9.77
2022-12-03T01:50:05.002Z,10.23
2022-12-03T01:52:36.439Z,11.80
2022-12-03T01:55:08.596Z,10.40
2022-12-03T01:57:41.801Z,10.40
2022-12-03T02:00:16.233Z,10.77
2022-12-03T02:02:44.667Z,10.17
2022-12-03T02:05:19.279Z,10.37
2022-12-03T02:07:47.851Z,10.33
2022-12-03T02:10:18.387Z,9.83
2022-12-03T02:12:49.995Z,10.07
2022-12-03T02:15:19.860Z,9.27
2022-12-03T02:17:48.203Z,9.63
2022-12-03T02:20:16.850Z,10.53
2022-12-03T02:22:54.639Z,10.57
2022-12-03T02:25:25.810Z,10.77
2022-12-03T02:27:56.253Z,10.27
2022-12-03T02:30:25.985Z,10.03
2022-12-03T02:32:55.246Z,10.47
2022-12-03T02:35:25.464Z,10.47
2022-12-03T02:37:56.043Z,10.10
2022-12-03T02:40:29.752Z,10.90
2022-12-03T02:43:02.465Z,9.63
2022-12-03T02:45:35.375Z,11.37
2022-12-03T02:48:07.921Z,10.60
2022-12-03T02:50:39.039Z,10.23
2022-12-03T02:53:09.555Z,10.33
2022-12-03T02:55:39.538Z,11.00
2022-12-03T02:58:08.035Z,10.23
2022-12-03T03:00:37.763Z,11.00
2022-12-03T03:03:07.986Z,10.23
2022-12-03T03:05:39.045Z,10.87
2022-12-03T03:08:09.585Z,10.67
2022-12-03T03:10:41.054Z,9.97
2022-12-03T03:13:15.241Z,9.87
2022-12-03T03:15:44.293Z,11.23
2022-12-03T03:18:14.576Z,11.63
2022-12-03T03:20:43.640Z,11.23
2022-12-03T03:23:17.752Z,10.33
2022-12-03T03:25:49.738Z,10.13
2022-12-03T03:28:18.416Z,11.87
2022-12-03T03:30:48.414Z,11.50
2022-12-03T03:33:17.858Z,11.43
2022-12-03T03:35:48.399Z,12.00
2022-12-03T03:38:18.821Z,11.83
2022-12-03T03:40:49.840Z,12.30
2022-12-03T03:43:18.767Z,10.87
2022-12-03T03:45:47.111Z,10.33
2022-12-03T03:48:16.121Z,11.37
2022-12-03T03:50:45.746Z,10.77
2022-12-03T03:53:15.177Z,10.97
2022-12-03T03:55:43.585Z,11.70
2022-12-03T03:58:13.338Z,10.93
2022-12-03T04:00:44.539Z,10.10
2022-12-03T04:03:13.018Z,10.53
2022-12-03T04:05:41.660Z,11.93
2022-12-03T04:08:10.010Z,10.30
2022-12-03T04:10:55.581Z,12.50
2022-12-03T04:13:25.219Z,11.20
2022-12-03T04:15:53.553Z,11.30
2022-12-03T04:18:39.278Z,10.40
2022-12-03T04:21:24.906Z,12.07
2022-12-03T04:23:53.144Z,12.43
2022-12-03T04:26:48.101Z,11.90
2022-12-03T04:29:17.737Z,11.17
2022-12-03T04:32:03.738Z,11.70
2022-12-03T04:34:49.624Z,11.70
2022-12-03T04:37:18.053Z,11.47
2022-12-03T04:39:46.318Z,11.03
2022-12-03T04:42:14.639Z,12.23
2022-12-03T04:44:44.316Z,12.80
2022-12-03T04:47:15.201Z,12.10
2022-12-03T04:49:44.990Z,12.07
2022-12-03T04:52:14.886Z,13.63
2022-12-03T04:54:43.651Z,12.73
2022-12-03T04:57:12.767Z,13.07
2022-12-03T04:59:41.627Z,12.07
2022-12-03T05:02:11.274Z,11.67
2022-12-03T05:04:39.610Z,14.25
2022-12-03T05:07:07.901Z,12.97
2022-12-03T05:09:36.245Z,12.67
2022-12-03T05:12:04.871Z,12.60
2022-12-03T05:14:33.126Z,11.03
2022-12-03T05:17:01.455Z,12.27
2022-12-03T05:19:44.979Z,12.60
2022-12-03T05:22:13.206Z,10.70
2022-12-03T05:24:41.454Z,12.57
2022-12-03T05:27:09.821Z,12.87
2022-12-03T05:29:38.076Z,12.80
2022-12-03T05:32:06.810Z,11.30
2022-12-03T05:34:36.462Z,12.70
2022-12-03T05:37:04.840Z,11.57
2022-12-03T05:39:33.169Z,12.20
2022-12-03T05:42:18.792Z,12.30
2022-12-03T05:44:47.203Z,12.97
2022-12-03T05:47:15.499Z,12.33
2022-12-03T05:49:45.098Z,13.67
2022-12-03T05:52:13.357Z,12.50
2022-12-03T05:54:41.590Z,13.53
2022-12-03T05:57:09.982Z,12.10
2022-12-03T05:59:38.236Z,13.73
2022-12-03T06:02:06.516Z,12.37
2022-12-03T06:04:34.825Z,13.73
2022-12-03T06:07:05.290Z,12.63
2022-12-03T06:09:35.742Z,13.33
2022-12-03T06:12:04.962Z,12.30
2022-12-03T06:14:34.761Z,11.57
2022-12-03T06:17:03.097Z,11.90
2022-12-03T06:19:31.356Z,13.17
2022-12-03T06:21:59.596Z,17.47
2022-12-03T06:24:29.499Z,20.70
2022-12-03T06:26:57.764Z,17.87
2022-12-03T06:29:26.059Z,15.40
2022-12-03T06:31:54.373Z,12.30
2022-12-03T06:34:22.742Z,12.03
2022-12-03T06:36:51.155Z,14.37
2022-12-03T06:39:19.677Z,13.67
2022-12-03T06:41:49.460Z,13.10
2022-12-03T06:44:17.882Z,12.57
2022-12-03T06:46:46.368Z,13.47
2022-12-03T06:49:14.783Z,12.50
2022-12-03T06:51:43.165Z,12.63
2022-12-03T06:54:11.446Z,11.70
2022-12-03T06:56:45.113Z,12.47
2022-12-03T06:59:18.654Z,12.10
2022-12-03T07:01:46.923Z,11.33
2022-12-03T07:04:15.338Z,12.80
2022-12-03T07:06:43.811Z,12.60
2022-12-03T07:09:12.140Z,11.73
2022-12-03T07:11:43.280Z,12.33
2022-12-03T07:14:12.534Z,12.20
2022-12-03T07:16:44.015Z,13.63
2022-12-03T07:19:15.481Z,12.90
2022-12-03T07:21:43.771Z,12.30
2022-12-03T07:24:12.354Z,12.93
2022-12-03T07:26:40.686Z,12.20
2022-12-03T07:29:08.957Z,12.93
2022-12-03T07:31:37.273Z,13.40
2022-12-03T07:34:07.641Z,13.00
2022-12-03T07:36:35.899Z,12.73
2022-12-03T07:39:04.299Z,13.23
2022-12-03T07:41:32.623Z,14.10
2022-12-03T07:44:00.854Z,12.10
2022-12-03T07:46:29.262Z,11.93
2022-12-03T07:48:57.570Z,12.20
2022-12-03T07:51:32.005Z,12.77
2022-12-03T07:54:00.691Z,13.53
2022-12-03T07:56:29.003Z,12.23
2022-12-03T07:58:57.671Z,12.73
2022-12-03T08:01:26.044Z,12.97
2022-12-03T08:03:54.386Z,11.93
2022-12-03T08:06:22.658Z,12.03
2022-12-03T08:08:52.356Z,13.13
2022-12-03T08:11:20.647Z,11.77
2022-12-03T08:13:51.092Z,12.50
2022-12-03T08:16:21.905Z,13.00
2022-12-03T08:18:51.399Z,14.77
2022-12-03T08:21:21.986Z,12.43
2022-12-03T08:23:51.649Z,12.77
2022-12-03T08:26:24.525Z,11.43
2022-12-03T08:28:52.927Z,11.60
2022-12-03T08:31:27.997Z,11.83
2022-12-03T08:34:13.243Z,12.30
2022-12-03T08:36:41.499Z,12.03
2022-12-03T08:39:24.146Z,13.50
2022-12-03T08:42:14.011Z,12.67
2022-12-03T08:44:42.682Z,13.07
2022-12-03T08:47:20.025Z,13.00
2022-12-03T08:49:54.277Z,12.43
2022-12-03T08:52:24.115Z,13.13
2022-12-03T08:54:56.297Z,12.77
2022-12-03T08:57:29.061Z,12.63
2022-12-03T09:00:01.385Z,13.63
2022-12-03T09:02:34.113Z,12.23
2022-12-03T09:05:15.322Z,14.20
2022-12-03T09:07:43.596Z,12.80
2022-12-03T09:10:13.689Z,13.87
2022-12-03T09:12:41.966Z,12.60
2022-12-03T09:15:10.852Z,14.87
2022-12-03T09:17:39.694Z,14.97
2022-12-03T09:20:09.168Z,15.43
2022-12-03T09:22:37.469Z,14.63
2022-12-03T09:25:06.577Z,14.53
2022-12-03T09:27:36.274Z,14.27
2022-12-03T09:30:05.527Z,13.47
2022-12-03T09:32:33.889Z,13.23
2022-12-03T09:35:02.239Z,13.07
2022-12-03T09:37:30.452Z,14.20
2022-12-03T09:39:58.680Z,14.30
2022-12-03T09:42:27.462Z,14.30
2022-12-03T09:44:57.297Z,13.03
2022-12-03T09:47:25.824Z,13.47
2022-12-03T09:49:54.812Z,15.10
2022-12-03T09:52:27.287Z,15.17
2022-12-03T09:54:56.287Z,15.30
2022-12-03T09:57:24.908Z,14.30
2022-12-03T09:59:53.412Z,14.03
2022-12-03T10:02:26.838Z,15.23
2022-12-03T10:04:55.473Z,13.93
2022-12-03T10:07:24.722Z,14.07
2022-12-03T10:09:53.445Z,13.83
2022-12-03T10:12:26.885Z,14.33
2022-12-03T10:14:55.384Z,14.67
2022-12-03T10:17:25.205Z,14.87
2022-12-03T10:19:53.661Z,14.73
2022-12-03T10:22:22.096Z,14.50
2022-12-03T10:25:07.180Z,16.80
2022-12-03T10:27:35.393Z,16.20
2022-12-03T10:30:06.408Z,16.97
2022-12-03T10:32:43.737Z,14.77
2022-12-03T10:35:14.165Z,15.90
2022-12-03T10:38:02.017Z,15.83
2022-12-03T10:40:31.877Z,16.93
2022-12-03T10:43:17.660Z,15.70
2022-12-03T10:45:47.163Z,14.37
2022-12-03T10:48:19.346Z,16.73
2022-12-03T10:50:52.668Z,15.27
2022-12-03T10:53:23.112Z,16.73
2022-12-03T10:55:58.778Z,16.00
2022-12-03T10:58:28.793Z,15.53
2022-12-03T11:00:58.765Z,15.30
2022-12-03T11:03:31.396Z,17.37
2022-12-03T11:06:02.655Z,15.97
2022-12-03T11:08:33.543Z,16.43
2022-12-03T11:11:03.921Z,14.90
2022-12-03T11:13:46.943Z,16.00
2022-12-03T11:16:35.730Z,15.13
2022-12-03T11:19:05.892Z,15.47
2022-12-03T11:21:57.151Z,14.70
2022-12-03T11:24:25.535Z,14.60
2022-12-03T11:27:26.978Z,15.20
2022-12-03T11:30:02.799Z,15.27
2022-12-03T11:33:07.499Z,15.20
2022-12-03T11:36:15.753Z,15.13
2022-12-03T11:38:53.684Z,17.15
2022-12-03T11:41:28.967Z,16.37
2022-12-03T11:44:31.401Z,16.13
2022-12-03T11:47:14.914Z,15.57
2022-12-03T11:49:49.984Z,14.63
2022-12-03T11:52:25.791Z,14.90
2022-12-03T11:55:01.115Z,14.30
2022-12-03T11:57:35.563Z,15.73
2022-12-03T12:00:19.766Z,15.63
2022-12-03T12:02:48.628Z,16.63
2022-12-03T12:05:24.186Z,14.87
2022-12-03T12:07:54.489Z,14.97
2022-12-03T12:10:46.939Z,14.63
2022-12-03T12:13:49.094Z,12.50
2022-12-03T12:16:39.356Z,13.40
2022-12-03T12:19:29.656Z,14.10
2022-12-03T12:22:13.455Z,14.20
2022-12-03T12:24:48.338Z,15.30
2022-12-03T12:27:19.624Z,13.33
2022-12-03T12:29:54.335Z,14.50
2022-12-03T12:32:26.586Z,14.33
2022-12-03T12:34:58.230Z,14.23
2022-12-03T12:37:33.611Z,14.10
2022-12-03T12:40:03.910Z,14.67
2022-12-03T12:42:36.423Z,14.17
2022-12-03T12:45:15.513Z,12.80
2022-12-03T12:47:50.104Z,12.23
2022-12-03T12:50:19.843Z,12.00
2022-12-03T12:52:54.678Z,11.30
2022-12-03T12:55:24.936Z,12.67
2022-12-03T12:57:56.774Z,13.10
2022-12-03T13:00:25.486Z,12.67
2022-12-03T13:02:57.752Z,13.80
2022-12-03T13:05:43.569Z,12.97
2022-12-03T13:08:25.208Z,12.40
2022-12-03T13:10:54.786Z,13.17
2022-12-03T13:13:27.422Z,14.07
2022-12-03T13:16:01.918Z,13.00
2022-12-03T13:18:39.539Z,13.37
2022-12-03T13:21:26.265Z,13.77
2022-12-03T13:23:56.278Z,11.73
2022-12-03T13:26:36.547Z,12.87
2022-12-03T13:29:16.093Z,12.23
2022-12-03T13:31:51.791Z,12.23
2022-12-03T13:34:22.393Z,11.77
2022-12-03T13:36:57.643Z,10.97
2022-12-03T13:39:31.391Z,11.47
2022-12-03T13:42:27.482Z,10.87
2022-12-03T13:44:58.102Z,11.30
2022-12-03T13:47:26.407Z,12.27
2022-12-03T13:49:58.252Z,11.53
2022-12-03T13:52:27.876Z,12.43
2022-12-03T13:54:57.984Z,12.83
2022-12-03T13:57:26.265Z,11.63
2022-12-03T13:59:54.640Z,12.00
2022-12-03T14:02:24.519Z,13.03
2022-12-03T14:04:58.441Z,11.57
2022-12-03T14:07:28.491Z,11.17
2022-12-03T14:09:57.054Z,11.53
2022-12-03T14:12:30.256Z,11.07
2022-12-03T14:14:58.615Z,11.00
2022-12-03T14:17:28.327Z,11.87
2022-12-03T14:19:56.927Z,10.87
2022-12-03T14:22:25.687Z,12.43
2022-12-03T14:24:54.688Z,11.40
2022-12-03T14:27:24.584Z,15.60
2022-12-03T14:29:53.473Z,17.88
2022-12-03T14:32:22.029Z,13.33
2022-12-03T14:34:51.800Z,14.60
2022-12-03T14:37:20.078Z,14.47
2022-12-03T14:39:48.358Z,12.43
2022-12-03T14:42:16.866Z,13.60
2022-12-03T14:44:46.620Z,14.50
2022-12-03T14:47:17.930Z,14.17
2022-12-03T14:49:46.512Z,11.80
2022-12-03T14:52:17.669Z,12.67
2022-12-03T14:54:46.477Z,12.00
2022-12-03T14:57:16.471Z,12.10
2022-12-03T14:59:47.054Z,14.50
2022-12-03T15:02:15.495Z,13.83
2022-12-03T15:04:43.742Z,15.50
2022-12-03T15:07:12.161Z,13.73
2022-12-03T15:09:41.790Z,13.10
2022-12-03T15:12:10.135Z,11.97
2022-12-03T15:14:38.354Z,11.80
2022-12-03T15:17:06.790Z,17.63
2022-12-03T15:19:35.354Z,18.30
2022-12-03T15:22:03.740Z,15.73
2022-12-03T15:24:32.061Z,19.80
2022-12-03T15:27:01.883Z,16.73
2022-12-03T15:29:30.418Z,29.80
2022-12-03T15:31:59.341Z,34.87
2022-12-03T15:34:27.808Z,18.63
2022-12-03T15:36:56.147Z,20.23
2022-12-03T15:39:24.438Z,20.70
2022-12-03T15:41:52.665Z,15.23
2022-12-03T15:44:22.328Z,11.83
2022-12-03T15:46:50.575Z,11.53
2022-12-03T15:49:18.837Z,15.43
2022-12-03T15:51:47.097Z,14.90
2022-12-03T15:54:18.153Z,15.33
2022-12-03T15:56:46.476Z,12.27
2022-12-03T15:59:14.742Z,14.27
2022-12-03T16:01:44.475Z,17.93
2022-12-03T16:04:12.789Z,13.03
2022-12-03T16:06:41.037Z,11.87
2022-12-03T16:09:41.979Z,12.50
2022-12-03T16:12:33.995Z,12.67
2022-12-03T16:18:13.267Z,11.03
2022-12-03T16:20:41.662Z,11.37
2022-12-03T16:23:19.072Z,10.43
2022-12-03T16:25:47.433Z,10.63
2022-12-03T16:28:15.733Z,10.97
2022-12-03T16:30:44.104Z,10.90
2022-12-03T16:33:13.901Z,13.40
2022-12-03T16:35:42.312Z,11.67
2022-12-03T16:38:11.436Z,10.00
2022-12-03T16:40:39.946Z,9.03
2022-12-03T16:43:09.677Z,8.17
2022-12-03T16:46:00.976Z,9.80
2022-12-03T16:48:31.227Z,9.73
2022-12-03T16:50:59.432Z,8.30
2022-12-03T16:53:27.731Z,8.50
2022-12-03T16:55:55.953Z,8.37
2022-12-03T16:58:24.356Z,9.07
2022-12-03T17:00:53.428Z,7.37
2022-12-03T17:03:22.719Z,7.93
2022-12-03T17:05:52.419Z,7.57
2022-12-03T17:08:20.779Z,9.27
2022-12-03T17:10:49.405Z,8.73
2022-12-03T17:13:17.784Z,8.43
2022-12-03T17:15:46.388Z,8.23
2022-12-03T17:18:14.792Z,8.17
2022-12-03T17:20:43.182Z,8.70
2022-12-03T17:23:13.454Z,16.93
2022-12-03T17:25:41.800Z,15.00
2022-12-03T17:28:10.053Z,7.77
2022-12-03T17:30:38.514Z,8.53
2022-12-03T17:33:06.917Z,9.03
2022-12-03T17:35:35.197Z,8.07
2022-12-03T17:38:03.803Z,9.13
2022-12-03T17:40:33.438Z,8.90
2022-12-03T17:43:01.706Z,9.33
2022-12-03T17:45:30.021Z,12.03
2022-12-03T17:47:58.400Z,9.00
2022-12-03T17:50:26.631Z,9.17
2022-12-03T17:52:55.122Z,8.93
2022-12-03T17:55:31.279Z,10.43
2022-12-03T17:58:07.009Z,9.00
2022-12-03T18:00:35.702Z,9.87
2022-12-03T18:03:04.385Z,10.90
2022-12-03T18:05:32.687Z,9.33
2022-12-03T18:08:01.045Z,10.03
2022-12-03T18:10:29.403Z,9.90
2022-12-03T18:13:01.647Z,9.10
2022-12-03T18:15:32.394Z,10.13
2022-12-03T18:18:00.728Z,9.43
2022-12-03T18:20:29.213Z,9.87
2022-12-03T18:22:58.802Z,10.07
2022-12-03T18:25:27.368Z,9.00
2022-12-03T18:27:55.662Z,10.25
2022-12-03T18:30:24.038Z,9.30
2022-12-03T18:32:53.718Z,9.60
2022-12-03T18:35:21.964Z,9.03
2022-12-03T18:37:51.355Z,9.30
2022-12-03T18:40:24.754Z,9.37
2022-12-03T18:42:53.017Z,8.83
2022-12-03T18:45:21.325Z,9.03
2022-12-03T18:47:56.831Z,9.40
2022-12-03T18:50:25.138Z,9.53
2022-12-03T18:52:53.551Z,9.37
2022-12-03T18:55:22.929Z,10.07
2022-12-03T18:57:51.219Z,9.70
2022-12-03T19:00:19.999Z,9.90
2022-12-03T19:03:04.498Z,10.17
2022-12-03T19:05:36.448Z,10.60
2022-12-03T19:08:12.656Z,11.07
2022-12-03T19:10:41.401Z,10.07
2022-12-03T19:13:09.803Z,10.73
2022-12-03T19:15:38.538Z,10.33
2022-12-03T19:18:07.533Z,9.37
2022-12-03T19:20:40.468Z,9.10
2022-12-03T19:23:08.763Z,9.00
2022-12-03T19:25:37.809Z,8.33
2022-12-03T19:28:06.297Z,8.10
2022-12-03T19:30:34.663Z,8.27
2022-12-03T19:33:02.993Z,7.23
2022-12-03T19:35:32.301Z,5.93
2022-12-03T19:38:01.982Z,5.97
2022-12-03T19:40:32.184Z,5.70
2022-12-03T19:43:00.481Z,6.83
2022-12-03T19:45:28.891Z,6.07
2022-12-03T19:47:57.255Z,6.73
2022-12-03T19:50:25.517Z,7.17
2022-12-03T19:52:53.999Z,7.07
2022-12-03T19:55:23.682Z,8.63
2022-12-03T19:57:52.109Z,8.93
2022-12-03T20:00:20.679Z,8.17
2022-12-03T20:02:50.842Z,8.50
2022-12-03T20:05:19.214Z,8.40
2022-12-03T20:07:47.648Z,8.90
2022-12-03T20:10:17.861Z,8.30
2022-12-03T20:12:47.817Z,7.20
2022-12-03T20:15:16.256Z,6.07
2022-12-03T20:17:44.545Z,6.30
2022-12-03T20:20:13.383Z,5.93
2022-12-03T20:22:41.729Z,6.63
2022-12-03T20:25:10.973Z,7.00
2022-12-03T20:27:39.421Z,6.53
2022-12-03T20:30:10.462Z,5.93
2022-12-03T20:32:44.899Z,6.60
2022-12-03T20:35:13.787Z,6.73
2022-12-03T20:37:42.083Z,6.50
2022-12-03T20:40:11.363Z,5.17
2022-12-03T20:42:39.720Z,5.47
2022-12-03T20:45:10.722Z,5.37
2022-12-03T20:47:38.934Z,5.77
2022-12-03T20:50:08.464Z,7.10
2022-12-03T20:52:36.754Z,7.23
2022-12-03T20:55:05.427Z,5.97
2022-12-03T20:57:33.707Z,6.93
2022-12-03T21:00:02.001Z,5.70
2022-12-03T21:02:31.690Z,6.10
2022-12-03T21:05:00.152Z,7.40
2022-12-03T21:07:28.498Z,5.93
2022-12-03T21:09:57.093Z,7.00
2022-12-03T21:12:25.753Z,6.47
2022-12-03T21:14:54.009Z,7.78
2022-12-03T21:17:25.301Z,6.07
2022-12-03T21:19:55.199Z,6.00
2022-12-03T21:22:23.610Z,6.47
2022-12-03T21:24:51.880Z,6.33
2022-12-03T21:27:22.016Z,6.30
2022-12-03T21:29:50.418Z,6.13
2022-12-03T21:32:18.695Z,6.50
2022-12-03T21:34:47.009Z,6.50
2022-12-03T21:37:16.737Z,6.63
2022-12-03T21:39:45.188Z,5.93
2022-12-03T21:42:34.251Z,6.30
2022-12-03T21:45:01.750Z,6.80
2022-12-03T21:47:36.686Z,6.80
2022-12-03T21:50:06.290Z,7.20
2022-12-03T21:52:36.635Z,7.60
2022-12-03T21:55:05.497Z,7.20
2022-12-03T21:57:36.124Z,7.30
2022-12-03T22:00:06.493Z,8.23
2022-12-03T22:02:34.942Z,7.73
2022-12-03T22:05:03.238Z,7.80
2022-12-03T22:07:33.683Z,7.87
2022-12-03T22:10:03.696Z,8.30
2022-12-03T22:12:32.838Z,8.47
2022-12-03T22:15:03.184Z,8.43
2022-12-03T22:17:31.741Z,7.63
2022-12-03T22:20:00.049Z,8.43
2022-12-03T22:22:28.400Z,8.60
2022-12-03T22:24:56.639Z,8.40
2022-12-03T22:27:26.421Z,7.03
2022-12-03T22:29:54.936Z,7.77
2022-12-03T22:32:23.876Z,7.60
2022-12-03T22:34:52.098Z,7.03
2022-12-03T22:37:20.435Z,6.13
2022-12-03T22:39:48.708Z,7.23
2022-12-03T22:42:17.106Z,7.33
2022-12-03T22:44:46.755Z,6.27
2022-12-03T22:47:15.042Z,7.13
2022-12-03T22:49:43.338Z,8.23
2022-12-03T22:52:11.719Z,6.67
2022-12-03T22:54:40.474Z,7.57
2022-12-03T22:57:08.695Z,7.00
2022-12-03T22:59:40.005Z,7.13
2022-12-03T23:02:09.644Z,6.97
2022-12-03T23:04:37.960Z,7.47
2022-12-03T23:07:08.145Z,7.63
2022-12-03T23:09:36.468Z,7.73
2022-12-03T23:12:04.925Z,8.57
2022-12-03T23:14:33.240Z,7.50
2022-12-03T23:17:01.473Z,8.70
2022-12-03T23:19:31.167Z,7.87
2022-12-03T23:21:59.755Z,7.83
2022-12-03T23:24:28.766Z,8.27
2022-12-03T23:26:57.769Z,7.87
2022-12-03T23:29:26.136Z,8.93
2022-12-03T23:31:54.470Z,8.80
2022-12-03T23:34:22.741Z,9.20
2022-12-03T23:36:52.436Z,9.17
2022-12-03T23:39:21.858Z,9.30
2022-12-03T23:41:53.923Z,9.53
2022-12-03T23:44:22.605Z,8.53
2022-12-03T23:46:50.892Z,10.10
2022-12-03T23:49:19.192Z,9.43
2022-12-03T23:51:47.642Z,10.33
2022-12-03T23:54:17.339Z,8.57
2022-12-03T23:56:46.021Z,9.47
2022-12-03T23:59:14.607Z,8.30
